createdAt,value
2017-05-03T00:00:04.325Z,9.40
2017-05-03T00:02:38.094Z,9.50
2017-05-03T00:05:11.233Z,9.40
2017-05-03T00:07:44.412Z,9.40
2017-05-03T00:10:18.300Z,9.40
2017-05-03T00:12:51.381Z,9.40
2017-05-03T00:15:24.524Z,9.50
2017-05-03T00:17:57.621Z,9.50
2017-05-03T00:20:31.514Z,9.50
2017-05-03T00:23:04.696Z,9.50
2017-05-03T00:25:37.798Z,9.50
2017-05-03T00:28:11.658Z,9.50
2017-05-03T00:30:44.746Z,9.50
2017-05-03T00:33:17.831Z,9.50
2017-05-03T00:35:51.689Z,9.50
2017-05-03T00:38:24.974Z,9.50
2017-05-03T00:40:58.257Z,9.50
2017-05-03T00:43:32.240Z,9.50
2017-05-03T00:46:05.277Z,9.50
2017-05-03T00:48:38.494Z,9.50
2017-05-03T00:51:12.486Z,9.50
2017-05-03T00:53:46.409Z,9.50
2017-05-03T00:56:19.566Z,9.60
2017-05-03T00:58:52.742Z,9.60
2017-05-03T01:01:25.800Z,9.60
2017-05-03T01:03:58.906Z,9.60
2017-05-03T01:06:32.161Z,9.60
2017-05-03T01:09:05.441Z,9.60
2017-05-03T01:11:38.769Z,9.60
2017-05-03T01:14:12.183Z,9.70
2017-05-03T01:16:45.563Z,9.80
2017-05-03T01:19:19.292Z,9.90
2017-05-03T01:21:52.650Z,9.90
2017-05-03T01:24:25.804Z,9.90
2017-05-03T01:26:58.933Z,9.80
2017-05-03T01:29:33.122Z,9.70
2017-05-03T01:32:07.001Z,9.80
2017-05-03T01:34:40.215Z,9.70
2017-05-03T01:37:13.470Z,9.80
2017-05-03T01:39:46.824Z,10.00
2017-05-03T01:42:20.126Z,9.90
2017-05-03T01:44:53.289Z,9.80
2017-05-03T01:47:26.555Z,9.80
2017-05-03T01:50:00.022Z,9.70
2017-05-03T01:52:33.227Z,9.70
2017-05-03T01:55:06.364Z,9.70
2017-05-03T01:57:39.630Z,9.70
2017-05-03T02:00:12.773Z,9.70
2017-05-03T02:02:46.185Z,9.70
2017-05-03T02:05:19.339Z,9.60
2017-05-03T02:07:52.462Z,9.60
2017-05-03T02:10:25.791Z,9.90
2017-05-03T02:12:58.959Z,9.90
2017-05-03T02:15:32.275Z,9.80
2017-05-03T02:18:06.105Z,10.00
2017-05-03T02:20:39.236Z,10.00
2017-05-03T02:23:12.387Z,9.90
2017-05-03T02:25:45.745Z,9.90
2017-05-03T02:28:18.932Z,9.80
2017-05-03T02:30:52.699Z,9.70
2017-05-03T02:33:25.850Z,9.80
2017-05-03T02:35:59.186Z,9.70
2017-05-03T02:38:32.583Z,9.80
2017-05-03T02:41:05.794Z,9.80
2017-05-03T02:43:39.802Z,9.80
2017-05-03T02:46:13.716Z,9.80
2017-05-03T02:48:46.888Z,9.80
2017-05-03T02:51:20.038Z,9.80
2017-05-03T02:53:53.310Z,9.80
2017-05-03T02:56:26.493Z,9.90
2017-05-03T02:58:59.806Z,9.90
2017-05-03T03:01:33.185Z,9.80
2017-05-03T03:04:07.133Z,9.80
2017-05-03T03:06:40.242Z,9.80
2017-05-03T03:09:13.486Z,9.90
2017-05-03T03:11:46.650Z,9.90
2017-05-03T03:14:20.741Z,9.90
2017-05-03T03:16:53.920Z,9.90
2017-05-03T03:19:27.214Z,9.90
2017-05-03T03:22:00.874Z,9.90
2017-05-03T03:24:34.411Z,9.90
2017-05-03T03:27:08.477Z,9.90
2017-05-03T03:29:42.221Z,9.80
2017-05-03T03:32:16.668Z,9.90
2017-05-03T03:34:49.935Z,9.90
2017-05-03T03:37:23.188Z,9.90
2017-05-03T03:39:56.460Z,9.90
2017-05-03T03:42:29.648Z,9.90
2017-05-03T03:45:02.943Z,9.90
2017-05-03T03:47:36.238Z,9.90
2017-05-03T03:50:09.392Z,9.90
2017-05-03T03:52:42.757Z,10.00
2017-05-03T03:55:16.028Z,10.00
2017-05-03T03:57:49.242Z,10.00
2017-05-03T04:00:22.362Z,10.00
2017-05-03T04:02:56.367Z,9.90
2017-05-03T04:05:29.403Z,10.00
2017-05-03T04:08:02.834Z,10.00
2017-05-03T04:10:35.913Z,10.00
2017-05-03T04:13:09.072Z,10.00
2017-05-03T04:15:43.186Z,10.00
2017-05-03T04:18:16.494Z,10.00
2017-05-03T04:20:50.469Z,10.00
2017-05-03T04:23:23.646Z,10.00
2017-05-03T04:25:56.982Z,9.80
2017-05-03T04:28:31.131Z,9.90
2017-05-03T04:31:05.120Z,10.00
2017-05-03T04:33:38.428Z,10.10
2017-05-03T04:36:11.578Z,10.00
2017-05-03T04:38:44.779Z,9.90
2017-05-03T04:41:17.910Z,9.90
2017-05-03T04:43:51.743Z,9.90
2017-05-03T04:46:25.177Z,10.00
2017-05-03T04:48:58.410Z,10.00
2017-05-03T04:51:31.727Z,10.00
2017-05-03T04:54:05.132Z,10.10
2017-05-03T04:56:38.873Z,10.20
2017-05-03T04:59:12.259Z,10.10
2017-05-03T05:01:45.457Z,10.10
2017-05-03T05:04:18.711Z,10.00
2017-05-03T05:06:52.096Z,10.00
2017-05-03T05:09:25.377Z,9.90
2017-05-03T05:11:58.652Z,9.90
2017-05-03T05:14:32.505Z,10.00
2017-05-03T05:17:05.755Z,10.10
2017-05-03T05:19:39.653Z,10.20
2017-05-03T05:22:12.813Z,10.20
2017-05-03T05:24:45.923Z,10.10
2017-05-03T05:27:19.094Z,10.20
2017-05-03T05:29:52.987Z,10.30
2017-05-03T05:32:26.267Z,10.60
2017-05-03T05:35:00.163Z,10.60
2017-05-03T05:37:33.330Z,10.50
2017-05-03T05:40:06.609Z,10.70
2017-05-03T05:42:39.797Z,10.60
2017-05-03T05:45:13.173Z,10.60
2017-05-03T05:47:46.338Z,10.60
2017-05-03T05:50:19.505Z,10.40
2017-05-03T05:52:53.507Z,10.40
2017-05-03T05:55:26.918Z,10.60
2017-05-03T05:58:00.053Z,10.50
2017-05-03T06:00:33.238Z,10.40
2017-05-03T06:03:06.513Z,10.20
2017-05-03T06:05:39.723Z,10.10
2017-05-03T06:08:13.194Z,10.20
2017-05-03T06:10:46.356Z,10.30
2017-05-03T06:13:20.212Z,10.20
2017-05-03T06:15:53.495Z,10.10
2017-05-03T06:18:27.520Z,10.10
2017-05-03T06:21:00.829Z,10.00
2017-05-03T06:23:34.208Z,10.30
2017-05-03T06:26:08.258Z,10.20
2017-05-03T06:28:41.637Z,10.40
2017-05-03T06:31:14.921Z,10.20
2017-05-03T06:33:48.219Z,10.10
2017-05-03T06:36:22.194Z,10.00
2017-05-03T06:38:56.125Z,10.10
2017-05-03T06:41:29.307Z,10.20
2017-05-03T06:44:02.547Z,10.40
2017-05-03T06:46:35.858Z,10.50
2017-05-03T06:49:09.149Z,10.60
2017-05-03T06:51:42.521Z,10.40
2017-05-03T06:54:15.908Z,10.50
2017-05-03T06:56:49.095Z,10.60
2017-05-03T06:59:22.613Z,10.80
2017-05-03T07:01:56.370Z,10.90
2017-05-03T07:04:29.836Z,10.90
2017-05-03T07:07:03.401Z,10.80
2017-05-03T07:09:37.013Z,10.60
2017-05-03T07:12:10.615Z,10.60
2017-05-03T07:14:44.369Z,10.40
2017-05-03T07:17:19.344Z,10.50
2017-05-03T07:19:52.492Z,10.60
2017-05-03T07:22:25.805Z,10.60
2017-05-03T07:24:59.002Z,10.70
2017-05-03T07:27:33.249Z,10.70
2017-05-03T07:30:21.422Z,10.90
2017-05-03T07:32:55.022Z,11.30
2017-05-03T07:35:28.339Z,11.30
2017-05-03T07:38:03.277Z,11.30
2017-05-03T07:40:36.398Z,11.40
2017-05-03T07:43:10.181Z,11.30
2017-05-03T07:45:43.551Z,11.30
2017-05-03T07:48:17.095Z,11.30
2017-05-03T07:50:50.551Z,11.30
2017-05-03T07:53:24.000Z,11.20
2017-05-03T07:55:57.420Z,11.10
2017-05-03T07:58:30.837Z,11.40
2017-05-03T08:01:04.232Z,11.50
2017-05-03T08:03:37.679Z,11.30
2017-05-03T08:06:11.135Z,11.20
2017-05-03T08:08:44.520Z,11.20
2017-05-03T08:11:17.887Z,11.30
2017-05-03T08:13:51.315Z,11.00
2017-05-03T08:16:24.597Z,11.20
2017-05-03T08:18:57.992Z,11.50
2017-05-03T08:21:31.314Z,11.50
2017-05-03T08:24:04.806Z,11.40
2017-05-03T08:26:38.387Z,11.30
2017-05-03T08:29:11.773Z,11.50
2017-05-03T08:31:45.151Z,11.60
2017-05-03T08:34:18.470Z,11.70
2017-05-03T08:36:51.851Z,11.80
2017-05-03T08:39:26.827Z,11.80
2017-05-03T08:42:00.820Z,12.00
2017-05-03T08:44:34.105Z,11.90
2017-05-03T08:47:09.480Z,12.10
2017-05-03T08:49:42.913Z,12.30
2017-05-03T08:52:16.328Z,12.50
2017-05-03T08:54:53.052Z,12.60
2017-05-03T08:57:26.108Z,12.60
2017-05-03T08:59:59.589Z,12.40
2017-05-03T09:02:33.243Z,12.50
2017-05-03T09:05:08.021Z,12.40
2017-05-03T09:07:41.506Z,12.70
2017-05-03T09:10:15.573Z,13.00
2017-05-03T09:12:50.229Z,13.20
2017-05-03T09:15:23.939Z,13.30
2017-05-03T09:17:57.334Z,13.20
2017-05-03T09:20:30.743Z,13.10
2017-05-03T09:23:03.980Z,13.10
2017-05-03T09:25:38.164Z,13.10
2017-05-03T09:28:11.501Z,13.10
2017-05-03T09:30:44.921Z,13.10
2017-05-03T09:33:18.428Z,13.30
2017-05-03T09:35:51.737Z,13.30
2017-05-03T09:38:25.459Z,13.30
2017-05-03T09:40:58.899Z,13.20
2017-05-03T09:43:32.009Z,13.20
2017-05-03T09:46:05.271Z,13.30
2017-05-03T09:48:38.727Z,13.20
2017-05-03T09:51:12.934Z,13.00
2017-05-03T09:53:46.496Z,13.10
2017-05-03T09:56:20.037Z,13.20
2017-05-03T09:58:53.586Z,13.10
2017-05-03T10:01:26.874Z,13.20
2017-05-03T10:04:00.206Z,13.30
2017-05-03T10:06:34.315Z,13.20
2017-05-03T10:09:08.113Z,13.20
2017-05-03T10:11:41.455Z,13.30
2017-05-03T10:14:14.882Z,13.10
2017-05-03T10:16:48.182Z,13.10
2017-05-03T10:19:22.914Z,13.20
2017-05-03T10:21:57.761Z,13.10
2017-05-03T10:24:31.371Z,13.00
2017-05-03T10:27:04.873Z,13.00
2017-05-03T10:29:38.339Z,13.00
2017-05-03T10:32:11.758Z,13.00
2017-05-03T10:34:46.258Z,13.20
2017-05-03T10:37:19.484Z,13.60
2017-05-03T10:39:52.757Z,13.50
2017-05-03T10:42:26.069Z,13.50
2017-05-03T10:44:59.432Z,13.50
2017-05-03T10:47:32.845Z,13.80
2017-05-03T10:50:07.013Z,13.90
2017-05-03T10:52:40.375Z,14.00
2017-05-03T10:55:13.593Z,14.20
2017-05-03T10:57:48.443Z,14.40
2017-05-03T11:00:22.250Z,14.40
2017-05-03T11:03:10.694Z,14.50
2017-05-03T11:05:44.430Z,14.30
2017-05-03T11:08:18.045Z,14.50
2017-05-03T11:10:51.430Z,14.50
2017-05-03T11:13:24.897Z,14.60
2017-05-03T11:15:58.451Z,14.70
2017-05-03T11:18:31.555Z,14.40
2017-05-03T11:21:04.957Z,14.50
2017-05-03T11:23:39.190Z,14.70
2017-05-03T11:26:13.052Z,14.50
2017-05-03T11:28:46.237Z,14.60
2017-05-03T11:31:20.383Z,14.80
2017-05-03T11:33:54.018Z,14.90
2017-05-03T11:36:27.464Z,14.90
2017-05-03T11:39:01.597Z,15.10
2017-05-03T11:41:35.668Z,15.00
2017-05-03T11:44:09.685Z,14.90
2017-05-03T11:46:42.943Z,15.10
2017-05-03T11:49:16.495Z,15.30
2017-05-03T11:51:49.789Z,15.60
2017-05-03T11:54:23.244Z,15.50
2017-05-03T11:57:00.204Z,15.40
2017-05-03T11:59:33.912Z,15.80
2017-05-03T12:02:07.340Z,15.70
2017-05-03T12:04:40.841Z,15.90
2017-05-03T12:07:13.984Z,16.00
2017-05-03T12:09:47.286Z,15.70
2017-05-03T12:12:22.111Z,15.80
2017-05-03T12:14:56.176Z,16.00
2017-05-03T12:17:29.380Z,15.90
2017-05-03T12:20:04.522Z,16.00
2017-05-03T12:22:38.226Z,16.10
2017-05-03T12:25:11.784Z,16.00
2017-05-03T12:27:46.857Z,16.30
2017-05-03T12:30:20.483Z,16.30
2017-05-03T12:32:54.674Z,16.40
2017-05-03T12:35:30.325Z,16.30
2017-05-03T12:38:04.707Z,16.20
2017-05-03T12:40:38.362Z,16.00
2017-05-03T12:43:13.418Z,16.10
2017-05-03T12:45:47.088Z,16.60
2017-05-03T12:48:21.156Z,16.30
2017-05-03T12:50:56.375Z,16.20
2017-05-03T12:53:30.217Z,16.20
2017-05-03T12:56:04.470Z,16.30
2017-05-03T12:58:39.353Z,16.30
2017-05-03T13:01:12.571Z,16.20
2017-05-03T13:03:45.830Z,16.30
2017-05-03T13:06:19.322Z,16.20
2017-05-03T13:08:52.761Z,16.30
2017-05-03T13:11:26.973Z,16.40
2017-05-03T13:14:00.589Z,16.30
2017-05-03T13:16:33.921Z,16.30
2017-05-03T13:19:07.118Z,16.20
2017-05-03T13:21:40.501Z,16.10
2017-05-03T13:24:13.660Z,16.00
2017-05-03T13:26:46.865Z,16.10
2017-05-03T13:29:20.099Z,16.30
2017-05-03T13:31:53.802Z,16.30
2017-05-03T13:34:27.081Z,16.10
2017-05-03T13:37:00.500Z,15.90
2017-05-03T13:39:27.856Z,15.70
2017-05-03T13:41:55.210Z,15.50
2017-05-03T13:44:22.586Z,15.70
2017-05-03T13:46:49.905Z,15.60
2017-05-03T13:49:17.241Z,15.60
2017-05-03T13:51:45.343Z,15.70
2017-05-03T13:54:12.687Z,15.80
2017-05-03T13:56:40.737Z,15.50
2017-05-03T13:59:08.135Z,15.60
2017-05-03T14:01:35.369Z,15.60
2017-05-03T14:04:02.717Z,15.70
2017-05-03T14:06:30.117Z,15.70
2017-05-03T14:08:57.641Z,15.70
2017-05-03T14:11:24.994Z,15.80
2017-05-03T14:13:52.365Z,15.80
2017-05-03T14:16:26.572Z,15.70
2017-05-03T14:18:54.027Z,15.30
2017-05-03T14:21:21.375Z,15.20
2017-05-03T14:23:48.984Z,15.40
2017-05-03T14:26:16.371Z,15.50
2017-05-03T14:28:43.729Z,15.50
2017-05-03T14:31:11.353Z,15.40
2017-05-03T14:33:38.850Z,15.10
2017-05-03T14:36:06.415Z,14.80
2017-05-03T14:38:33.850Z,14.70
2017-05-03T14:41:01.384Z,14.30
2017-05-03T14:43:29.482Z,14.20
2017-05-03T14:45:57.041Z,14.20
2017-05-03T14:48:24.593Z,14.20
2017-05-03T14:50:52.301Z,14.00
2017-05-03T14:53:19.886Z,14.20
2017-05-03T14:55:47.292Z,14.20
2017-05-03T14:58:14.682Z,14.20
2017-05-03T15:00:42.192Z,14.40
2017-05-03T15:03:10.349Z,14.40
2017-05-03T15:05:38.032Z,14.70
2017-05-03T15:08:05.571Z,14.80
2017-05-03T15:10:33.265Z,14.70
2017-05-03T15:13:00.843Z,14.30
2017-05-03T15:15:28.345Z,14.20
2017-05-03T15:17:55.832Z,14.20
2017-05-03T15:20:23.393Z,14.20
2017-05-03T15:22:50.787Z,14.10
2017-05-03T15:25:18.284Z,13.90
2017-05-03T15:27:45.904Z,13.90
2017-05-03T15:30:13.477Z,13.90
2017-05-03T15:32:41.080Z,13.80
2017-05-03T15:35:08.608Z,13.70
2017-05-03T15:37:36.798Z,13.70
2017-05-03T15:40:04.252Z,13.40
2017-05-03T15:42:31.835Z,13.10
2017-05-03T15:44:59.631Z,13.20
2017-05-03T15:47:27.373Z,13.30
2017-05-03T15:49:54.795Z,13.00
2017-05-03T15:52:22.378Z,13.10
2017-05-03T15:54:49.938Z,13.40
2017-05-03T15:57:17.553Z,13.40
2017-05-03T15:59:44.996Z,13.50
2017-05-03T16:02:12.692Z,13.40
2017-05-03T16:04:40.337Z,13.50
2017-05-03T16:07:07.782Z,13.80
2017-05-03T16:09:36.090Z,13.70
2017-05-03T16:12:03.520Z,13.70
2017-05-03T16:14:31.239Z,13.70
2017-05-03T16:16:58.518Z,13.60
2017-05-03T16:19:26.278Z,13.60
2017-05-03T16:21:53.798Z,13.40
2017-05-03T16:24:21.409Z,13.40
2017-05-03T16:26:48.993Z,13.60
2017-05-03T16:29:16.566Z,13.70
2017-05-03T16:31:44.190Z,13.50
2017-05-03T16:34:11.672Z,13.50
2017-05-03T16:36:39.127Z,13.30
2017-05-03T16:39:07.273Z,13.40
2017-05-03T16:41:34.827Z,13.50
2017-05-03T16:44:02.287Z,13.60
2017-05-03T16:46:29.937Z,13.50
2017-05-03T16:48:57.494Z,13.60
2017-05-03T16:51:25.679Z,13.70
2017-05-03T16:53:53.497Z,13.70
2017-05-03T16:56:21.086Z,13.60
2017-05-03T16:58:48.531Z,13.30
2017-05-03T17:01:15.931Z,13.40
2017-05-03T17:03:43.525Z,13.60
2017-05-03T17:06:10.969Z,13.80
2017-05-03T17:08:38.452Z,13.60
2017-05-03T17:11:06.113Z,13.30
2017-05-03T17:13:33.605Z,12.90
2017-05-03T17:16:01.160Z,12.60
2017-05-03T17:18:29.322Z,12.80
2017-05-03T17:20:56.733Z,12.70
2017-05-03T17:23:24.311Z,12.80
2017-05-03T17:25:51.980Z,12.90
2017-05-03T17:28:19.566Z,13.00
2017-05-03T17:30:47.179Z,13.00
2017-05-03T17:33:14.915Z,13.10
2017-05-03T17:35:42.343Z,13.30
2017-05-03T17:38:09.811Z,13.20
2017-05-03T17:40:37.364Z,13.20
2017-05-03T17:43:05.085Z,13.30
2017-05-03T17:45:32.809Z,13.40
2017-05-03T17:48:00.315Z,13.40
2017-05-03T17:50:27.870Z,13.40
2017-05-03T17:52:55.574Z,13.20
2017-05-03T17:55:23.036Z,12.90
2017-05-03T17:57:50.312Z,12.60
2017-05-03T18:00:17.761Z,12.80
2017-05-03T18:02:45.361Z,12.90
2017-05-03T18:05:12.774Z,12.90
2017-05-03T18:07:40.385Z,12.90
2017-05-03T18:10:07.942Z,12.70
2017-05-03T18:12:35.415Z,12.50
2017-05-03T18:15:03.070Z,12.50
2017-05-03T18:17:30.533Z,12.50
2017-05-03T18:19:58.048Z,12.60
2017-05-03T18:22:25.425Z,12.50
2017-05-03T18:24:53.051Z,12.30
2017-05-03T18:27:21.045Z,12.20
2017-05-03T18:29:56.233Z,12.20
2017-05-03T18:32:23.744Z,12.50
2017-05-03T18:34:51.333Z,12.30
2017-05-03T18:37:18.862Z,12.20
2017-05-03T18:39:46.324Z,12.20
2017-05-03T18:42:13.882Z,12.40
2017-05-03T18:44:41.478Z,12.30
2017-05-03T18:47:09.055Z,12.20
2017-05-03T18:49:36.477Z,11.80
2017-05-03T18:52:04.066Z,11.80
2017-05-03T18:54:31.630Z,12.10
2017-05-03T18:56:59.203Z,11.90
2017-05-03T18:59:26.995Z,12.20
2017-05-03T19:01:54.509Z,12.30
2017-05-03T19:04:22.021Z,12.50
2017-05-03T19:06:50.238Z,12.60
2017-05-03T19:09:18.341Z,12.50
2017-05-03T19:11:45.977Z,12.00
2017-05-03T19:14:13.617Z,12.20
2017-05-03T19:16:41.189Z,12.40
2017-05-03T19:19:08.613Z,12.10
2017-05-03T19:21:36.750Z,12.00
2017-05-03T19:24:04.274Z,12.30
2017-05-03T19:26:31.726Z,12.20
2017-05-03T19:28:59.911Z,12.00
2017-05-03T19:31:27.453Z,12.00
2017-05-03T19:33:54.917Z,11.90
2017-05-03T19:36:22.340Z,11.80
2017-05-03T19:38:49.857Z,11.90
2017-05-03T19:41:17.334Z,11.70
2017-05-03T19:43:44.669Z,11.90
2017-05-03T19:46:12.157Z,11.60
2017-05-03T19:48:39.747Z,11.50
2017-05-03T19:51:07.356Z,11.70
2017-05-03T19:53:35.016Z,11.60
2017-05-03T19:56:02.549Z,11.80
2017-05-03T19:58:30.068Z,11.70
2017-05-03T20:00:57.672Z,11.90
2017-05-03T20:03:25.186Z,12.00
2017-05-03T20:05:52.397Z,12.50
2017-05-03T20:08:19.863Z,12.40
2017-05-03T20:10:47.490Z,12.60
2017-05-03T20:13:15.184Z,12.60
2017-05-03T20:15:42.750Z,12.80
2017-05-03T20:18:10.172Z,12.90
2017-05-03T20:20:37.673Z,12.90
2017-05-03T20:23:05.175Z,13.00
2017-05-03T20:25:32.755Z,13.00
2017-05-03T20:28:00.198Z,13.10
2017-05-03T20:30:27.993Z,13.20
2017-05-03T20:32:55.678Z,13.20
2017-05-03T20:35:23.465Z,13.20
2017-05-03T20:37:51.285Z,13.20
2017-05-03T20:40:19.169Z,13.10
2017-05-03T20:42:46.737Z,13.20
2017-05-03T20:45:14.317Z,13.20
2017-05-03T20:47:41.917Z,13.10
2017-05-03T20:50:09.540Z,13.20
2017-05-03T20:52:36.898Z,13.10
2017-05-03T20:55:04.302Z,13.10
2017-05-03T20:57:31.837Z,13.20
2017-05-03T20:59:59.372Z,13.20
2017-05-03T21:02:26.973Z,13.20
2017-05-03T21:04:54.633Z,13.20
2017-05-03T21:07:22.238Z,13.20
2017-05-03T21:09:49.966Z,13.20
2017-05-03T21:12:17.398Z,13.20
2017-05-03T21:14:45.615Z,13.20
2017-05-03T21:17:13.454Z,13.20
2017-05-03T21:19:41.151Z,13.30
2017-05-03T21:22:08.641Z,13.20
2017-05-03T21:24:36.127Z,13.20
2017-05-03T21:27:03.575Z,13.30
2017-05-03T21:29:31.131Z,13.20
2017-05-03T21:31:58.574Z,13.20
2017-05-03T21:34:26.136Z,13.10
2017-05-03T21:36:53.767Z,13.10
2017-05-03T21:39:21.302Z,13.10
2017-05-03T21:41:48.882Z,13.10
2017-05-03T21:44:16.421Z,13.20
2017-05-03T21:46:43.805Z,13.10
2017-05-03T21:49:11.297Z,13.10
2017-05-03T21:51:38.686Z,13.20
2017-05-03T21:54:06.159Z,13.20
2017-05-03T21:56:33.730Z,13.00
2017-05-03T21:59:01.165Z,13.10
2017-05-03T22:01:29.385Z,13.10
2017-05-03T22:03:56.763Z,13.20
2017-05-03T22:06:24.299Z,13.10
2017-05-03T22:08:51.697Z,13.20
2017-05-03T22:11:19.302Z,13.10
2017-05-03T22:13:46.841Z,13.20
2017-05-03T22:16:14.475Z,13.00
2017-05-03T22:18:41.919Z,13.00
2017-05-03T22:21:09.414Z,13.00
2017-05-03T22:23:37.105Z,13.00
2017-05-03T22:26:04.644Z,13.00
2017-05-03T22:28:32.066Z,13.00
2017-05-03T22:30:59.556Z,12.80
2017-05-03T22:33:27.533Z,12.80
2017-05-03T22:35:55.045Z,12.90
2017-05-03T22:38:22.499Z,12.90
2017-05-03T22:40:50.082Z,12.90
2017-05-03T22:43:17.788Z,12.90
2017-05-03T22:45:45.331Z,12.80
2017-05-03T22:48:13.020Z,12.90
2017-05-03T22:50:40.537Z,12.90
2017-05-03T22:53:08.077Z,12.90
2017-05-03T22:55:35.646Z,12.90
2017-05-03T22:58:03.191Z,13.00
2017-05-03T23:00:30.854Z,12.90
2017-05-03T23:02:58.437Z,13.00
2017-05-03T23:05:25.986Z,12.90
2017-05-03T23:07:53.540Z,13.00
2017-05-03T23:10:20.813Z,12.90
2017-05-03T23:12:48.300Z,13.00
2017-05-03T23:15:15.709Z,12.90
2017-05-03T23:17:43.262Z,12.90
2017-05-03T23:20:10.688Z,13.00
2017-05-03T23:22:38.315Z,12.90
2017-05-03T23:25:05.725Z,13.00
2017-05-03T23:27:33.173Z,13.00
2017-05-03T23:30:00.863Z,13.00
2017-05-03T23:32:28.403Z,13.00
2017-05-03T23:34:55.851Z,12.90
2017-05-03T23:37:23.417Z,12.90
2017-05-03T23:39:51.581Z,12.90
2017-05-03T23:42:19.764Z,13.00
2017-05-03T23:44:47.271Z,13.00
2017-05-03T23:47:15.524Z,12.90
2017-05-03T23:49:42.970Z,12.80
2017-05-03T23:52:10.381Z,12.70
2017-05-03T23:54:37.853Z,12.80
2017-05-03T23:57:05.394Z,12.70
2017-05-03T23:59:32.865Z,12.80
